Main page
METAR-TAF:

METAR-TAF

Airports :

Zaragoza Airport

Zaragoza, Spain

latitude: 41-40N, longitude: 001-01W, elevation: 263 m

Current weather observation

The report was made 28 minutes ago, at 22:00 UTC
Wind 8 kt from the West
Temperature 16°C
Humidity 59%
Pressure 1017 hPa
Visibility 10 km or more
no clouds below 1500 m and no cumulonimbus

METAR: LEZG 052200Z 26008KT CAVOK 16/08 Q1017

Time: 00:28 (22:28 UTC)

Forecast

The report was made 5 hours and 28 minutes ago, at 17:00 UTC
Forecast valid from 05 at 18 UTC to 06 at 18 UTC
Wind 12 kt from the North/Northwest
Visibility 10 km or more
Few clouds at a height of 6000 ft
Becoming
from 05 at 19 UTC to 05 at 22 UTC
Wind 7 kt from the West

TAF: LEZG 051700Z 0518/0618 34012KT 9999 FEW060 TX29/0614Z TN11/0606Z BECMG 0519/0522 27007KT

Weather observations and forecasts of more than 4000 airports (METAR and TAF reports).

The available stations are represented by yellow and red dots on the map.

Hover mouse over dot to see the name of the station.

Then click to see weather observations and forecasts.

To change the map : click on the green buttons with a black cross to zoom in, on the green button with a dash to zoom out, or on the green arrows for adjacent maps.


METAR-TAF: